createdAt,value
2018-03-03T00:01:15.001Z,-6.50
2018-03-03T00:03:44.025Z,-6.60
2018-03-03T00:06:12.170Z,-6.50
2018-03-03T00:08:40.358Z,-6.70
2018-03-03T00:11:08.515Z,-6.50
2018-03-03T00:13:36.666Z,-6.60
2018-03-03T00:16:05.614Z,-6.70
2018-03-03T00:18:33.766Z,-6.60
2018-03-03T00:21:01.906Z,-6.80
2018-03-03T00:23:30.841Z,-6.60
2018-03-03T00:25:58.986Z,-6.80
2018-03-03T00:28:27.129Z,-6.80
2018-03-03T00:30:55.286Z,-7.00
2018-03-03T00:33:23.528Z,-6.70
2018-03-03T00:35:51.675Z,-6.90
2018-03-03T00:38:19.879Z,-7.00
2018-03-03T00:40:48.225Z,-7.10
2018-03-03T00:43:16.371Z,-6.90
2018-03-03T00:45:44.526Z,-6.80
2018-03-03T00:48:12.674Z,-7.00
2018-03-03T00:50:40.835Z,-7.00
2018-03-03T00:53:09.430Z,-7.00
2018-03-03T00:55:37.573Z,-7.20
2018-03-03T00:58:05.714Z,-7.10
2018-03-03T01:00:33.879Z,-7.00
2018-03-03T01:03:02.032Z,-6.90
2018-03-03T01:05:30.198Z,-7.20
2018-03-03T01:07:58.389Z,-7.00
2018-03-03T01:10:26.635Z,-7.10
2018-03-03T01:12:54.778Z,-6.90
2018-03-03T01:15:23.711Z,-7.20
2018-03-03T01:17:51.869Z,-7.10
2018-03-03T01:20:20.139Z,-7.00
2018-03-03T01:22:48.298Z,-7.00
2018-03-03T01:25:16.465Z,-7.00
2018-03-03T01:27:44.622Z,-7.10
2018-03-03T01:30:13.557Z,-7.10
2018-03-03T01:32:41.725Z,-7.20
2018-03-03T01:35:09.892Z,-7.20
2018-03-03T01:37:38.067Z,-7.20
2018-03-03T01:40:06.256Z,-7.20
2018-03-03T01:42:34.414Z,-7.10
2018-03-03T01:45:02.579Z,-7.30
2018-03-03T01:47:30.726Z,-7.20
2018-03-03T01:49:59.741Z,-7.20
2018-03-03T01:52:27.931Z,-7.10
2018-03-03T01:54:56.076Z,-7.00
2018-03-03T01:57:24.226Z,-7.30
2018-03-03T01:59:52.406Z,-7.20
2018-03-03T02:02:21.318Z,-7.20
2018-03-03T02:04:49.457Z,-7.30
2018-03-03T02:07:17.638Z,-7.40
2018-03-03T02:09:46.549Z,-7.30
2018-03-03T02:12:15.465Z,-7.40
2018-03-03T02:14:43.627Z,-7.40
2018-03-03T02:17:11.802Z,-7.30
2018-03-03T02:19:40.084Z,-7.50
2018-03-03T02:22:08.242Z,-7.30
2018-03-03T02:24:36.418Z,-7.50
2018-03-03T02:27:04.566Z,-7.60
2018-03-03T02:29:33.469Z,-7.40
2018-03-03T02:32:01.650Z,-7.40
2018-03-03T02:34:29.795Z,-7.50
2018-03-03T02:36:58.705Z,-7.50
2018-03-03T02:39:26.878Z,-7.60
2018-03-03T02:41:55.018Z,-7.60
2018-03-03T02:44:23.166Z,-7.70
2018-03-03T02:46:51.332Z,-7.40
2018-03-03T02:49:19.474Z,-7.50
2018-03-03T02:51:47.632Z,-7.70
2018-03-03T02:54:16.548Z,-7.60
2018-03-03T02:56:44.713Z,-7.60
2018-03-03T02:59:12.999Z,-7.80
2018-03-03T03:01:41.178Z,-7.70
2018-03-03T03:04:09.332Z,-7.60
2018-03-03T03:06:37.498Z,-7.60
2018-03-03T03:09:05.646Z,-7.70
2018-03-03T03:11:33.831Z,-7.80
2018-03-03T03:14:02.741Z,-7.70
2018-03-03T03:16:30.898Z,-7.80
2018-03-03T03:18:59.066Z,-7.80
2018-03-03T03:21:28.341Z,-7.90
2018-03-03T03:23:56.487Z,-8.00
2018-03-03T03:26:24.660Z,-8.10
2018-03-03T03:28:52.805Z,-8.00
2018-03-03T03:31:20.992Z,-8.00
2018-03-03T03:33:49.185Z,-7.80
2018-03-03T03:36:17.325Z,-7.80
2018-03-03T03:38:45.469Z,-7.90
2018-03-03T03:41:14.397Z,-8.10
2018-03-03T03:43:42.706Z,-7.90
2018-03-03T03:46:10.853Z,-7.90
2018-03-03T03:48:39.341Z,-8.10
2018-03-03T03:51:07.481Z,-8.10
2018-03-03T03:53:35.670Z,-8.00
2018-03-03T03:56:03.941Z,-8.20
2018-03-03T03:58:32.103Z,-8.10
2018-03-03T04:01:00.289Z,-8.20
2018-03-03T04:03:28.451Z,-8.20
2018-03-03T04:05:56.590Z,-8.10
2018-03-03T04:08:25.537Z,-8.20
2018-03-03T04:10:53.983Z,-8.10
2018-03-03T04:13:22.126Z,-8.10
2018-03-03T04:15:50.289Z,-8.00
2018-03-03T04:18:18.438Z,-8.10
2018-03-03T04:20:46.594Z,-8.30
2018-03-03T04:23:14.782Z,-8.20
2018-03-03T04:25:42.931Z,-8.10
2018-03-03T04:28:11.071Z,-8.30
2018-03-03T04:30:39.999Z,-8.30
2018-03-03T04:33:08.149Z,-8.40
2018-03-03T04:35:36.325Z,-8.30
2018-03-03T04:38:04.466Z,-8.40
2018-03-03T04:40:32.602Z,-8.10
2018-03-03T04:43:00.785Z,-8.50
2018-03-03T04:45:28.929Z,-8.20
2018-03-03T04:47:57.945Z,-8.50
2018-03-03T04:50:26.117Z,-8.30
2018-03-03T04:52:54.262Z,-8.30
2018-03-03T04:55:22.401Z,-8.50
2018-03-03T04:57:51.329Z,-8.50
2018-03-03T05:00:25.138Z,-8.40
2018-03-03T05:06:05.674Z,-8.40
2018-03-03T05:08:39.464Z,-8.60
2018-03-03T05:11:17.402Z,-8.50
2018-03-03T05:13:46.319Z,-8.60
2018-03-03T05:16:20.013Z,-8.60
2018-03-03T05:21:55.047Z,-8.80
2018-03-03T05:24:30.338Z,-8.60
2018-03-03T05:27:04.086Z,-8.60
2018-03-03T05:29:38.521Z,-8.70
2018-03-03T05:32:12.145Z,-8.60
2018-03-03T05:34:44.801Z,-8.70
2018-03-03T05:37:18.497Z,-8.80
2018-03-03T05:40:01.526Z,-8.60
2018-03-03T05:42:35.347Z,-8.60
2018-03-03T05:45:09.099Z,-8.60
2018-03-03T05:50:59.985Z,-8.50
2018-03-03T05:53:33.723Z,-8.60
2018-03-03T05:56:02.717Z,-8.40
2018-03-03T06:01:33.161Z,-8.60
2018-03-03T06:04:07.097Z,-8.40
2018-03-03T06:09:43.477Z,-8.50
2018-03-03T06:12:12.391Z,-8.40
2018-03-03T06:14:40.538Z,-8.50
2018-03-03T06:17:09.470Z,-8.40
2018-03-03T06:19:37.634Z,-8.40
2018-03-03T06:22:05.792Z,-8.30
2018-03-03T06:24:33.998Z,-8.50
2018-03-03T06:27:02.140Z,-8.30
2018-03-03T06:29:30.282Z,-8.20
2018-03-03T06:31:59.213Z,-8.10
2018-03-03T06:34:27.356Z,-8.10
2018-03-03T06:36:56.265Z,-8.00
2018-03-03T06:39:24.421Z,-8.00
2018-03-03T06:41:52.598Z,-7.90
2018-03-03T06:44:20.753Z,-7.90
2018-03-03T06:46:49.659Z,-7.90
2018-03-03T06:49:17.834Z,-7.90
2018-03-03T06:51:46.030Z,-7.80
2018-03-03T06:54:14.170Z,-7.60
2018-03-03T06:56:43.109Z,-7.60
2018-03-03T06:59:11.272Z,-7.50
2018-03-03T07:01:39.411Z,-7.20
2018-03-03T07:04:07.574Z,-7.10
2018-03-03T07:06:36.488Z,-7.20
2018-03-03T07:09:04.654Z,-6.90
2018-03-03T07:11:32.844Z,-6.90
2018-03-03T07:14:00.978Z,-6.80
2018-03-03T07:16:29.922Z,-6.80
2018-03-03T07:18:58.066Z,-6.70
2018-03-03T07:21:27.050Z,-6.60
2018-03-03T07:23:55.225Z,-6.50
2018-03-03T07:26:23.369Z,-6.50
2018-03-03T07:28:51.529Z,-6.30
2018-03-03T07:31:19.781Z,-6.10
2018-03-03T07:33:47.937Z,-6.00
2018-03-03T07:36:16.083Z,-6.00
2018-03-03T07:38:44.285Z,-5.60
2018-03-03T07:41:12.514Z,-5.50
2018-03-03T07:43:41.458Z,-5.40
2018-03-03T07:46:09.621Z,-5.40
2018-03-03T07:48:37.782Z,-5.30
2018-03-03T07:51:06.574Z,-4.90
2018-03-03T07:53:34.729Z,-4.90
2018-03-03T07:56:03.489Z,-5.00
2018-03-03T08:01:28.333Z,-4.90
2018-03-03T08:03:56.497Z,-5.00
2018-03-03T08:06:25.408Z,-4.70
2018-03-03T08:08:53.560Z,-4.50
2018-03-03T08:11:21.714Z,-4.60
2018-03-03T08:13:50.625Z,-4.30
2018-03-03T08:16:18.785Z,-4.40
2018-03-03T08:18:48.679Z,-4.10
2018-03-03T08:21:16.850Z,-3.90
2018-03-03T08:23:44.994Z,-4.00
2018-03-03T08:26:13.142Z,-4.00
2018-03-03T08:28:41.298Z,-3.90
2018-03-03T08:31:10.213Z,-3.80
2018-03-03T08:33:38.375Z,-3.70
2018-03-03T08:36:06.546Z,-3.70
2018-03-03T08:38:34.693Z,-3.60
2018-03-03T08:41:03.599Z,-3.40
2018-03-03T08:43:31.762Z,-3.30
2018-03-03T08:46:00.686Z,-3.10
2018-03-03T08:48:28.825Z,-3.20
2018-03-03T08:50:57.758Z,-2.80
2018-03-03T08:53:25.901Z,-2.80
2018-03-03T08:55:54.046Z,-2.70
2018-03-03T08:58:22.993Z,-2.50
2018-03-03T09:00:51.135Z,-2.40
2018-03-03T09:03:19.282Z,-2.50
2018-03-03T09:05:47.437Z,-2.70
2018-03-03T09:08:15.614Z,-2.80
2018-03-03T09:10:43.762Z,-2.70
2018-03-03T09:13:11.905Z,-2.60
2018-03-03T09:15:40.350Z,-2.50
2018-03-03T09:18:08.574Z,-2.40
2018-03-03T09:20:36.749Z,-2.10
2018-03-03T09:23:05.043Z,-1.90
2018-03-03T09:25:33.184Z,-1.70
2018-03-03T09:28:01.378Z,-1.50
2018-03-03T09:30:29.534Z,-1.30
2018-03-03T09:32:57.677Z,-1.10
2018-03-03T09:35:26.606Z,-0.70
2018-03-03T09:37:54.751Z,-0.60
2018-03-03T09:40:22.890Z,-0.60
2018-03-03T09:42:51.058Z,-0.40
2018-03-03T09:45:19.202Z,-0.40
2018-03-03T09:47:47.363Z,-0.20
2018-03-03T09:50:15.535Z,0.00
2018-03-03T09:52:43.682Z,0.20
2018-03-03T09:55:12.600Z,0.60
2018-03-03T09:57:40.749Z,0.70
2018-03-03T10:00:08.890Z,0.80
2018-03-03T10:02:37.045Z,1.00
2018-03-03T10:05:05.195Z,1.10
2018-03-03T10:07:33.325Z,1.20
2018-03-03T10:10:02.355Z,1.70
2018-03-03T10:12:30.730Z,1.70
2018-03-03T10:14:58.913Z,1.90
2018-03-03T10:17:27.278Z,2.00
2018-03-03T10:19:55.409Z,2.10
2018-03-03T10:22:24.340Z,2.50
2018-03-03T10:24:52.533Z,2.50
2018-03-03T10:27:20.673Z,2.60
2018-03-03T10:29:48.807Z,2.80
2018-03-03T10:32:16.957Z,3.00
2018-03-03T10:34:45.923Z,3.20
2018-03-03T10:37:14.069Z,3.50
2018-03-03T10:39:42.970Z,3.90
2018-03-03T10:42:11.142Z,3.80
2018-03-03T10:44:39.278Z,4.10
2018-03-03T10:47:07.414Z,4.40
2018-03-03T10:49:35.576Z,4.60
2018-03-03T10:52:03.706Z,4.90
2018-03-03T10:54:32.610Z,5.20
2018-03-03T10:57:02.258Z,5.40
2018-03-03T10:59:30.393Z,5.40
2018-03-03T11:01:58.530Z,5.60
2018-03-03T11:04:26.677Z,5.50
2018-03-03T11:06:54.810Z,5.60
2018-03-03T11:09:22.958Z,5.60
2018-03-03T11:11:51.902Z,6.20
2018-03-03T11:14:20.063Z,6.20
2018-03-03T11:16:48.230Z,6.40
2018-03-03T11:19:16.366Z,6.60
2018-03-03T11:21:45.282Z,7.30
2018-03-03T11:24:13.438Z,7.30
2018-03-03T11:26:42.578Z,7.50
2018-03-03T11:29:10.713Z,7.50
2018-03-03T11:31:39.645Z,8.00
2018-03-03T11:34:07.826Z,8.00
2018-03-03T11:36:35.981Z,8.10
2018-03-03T11:39:04.141Z,8.50
2018-03-03T11:41:32.282Z,8.60
2018-03-03T11:44:01.173Z,9.20
2018-03-03T11:46:30.108Z,9.70
2018-03-03T11:48:58.243Z,9.70
2018-03-03T11:51:27.151Z,10.30
2018-03-03T11:53:55.325Z,10.30
2018-03-03T11:56:23.515Z,10.70
2018-03-03T11:58:51.690Z,11.20
2018-03-03T12:01:19.833Z,11.80
2018-03-03T12:03:47.970Z,12.10
2018-03-03T12:06:16.207Z,12.50
2018-03-03T12:08:44.340Z,13.10
2018-03-03T12:11:13.242Z,13.80
2018-03-03T12:13:42.155Z,14.40
2018-03-03T12:16:10.328Z,14.40
2018-03-03T12:18:38.466Z,14.80
2018-03-03T12:21:07.369Z,15.80
2018-03-03T12:23:35.538Z,15.70
2018-03-03T12:26:04.453Z,17.30
2018-03-03T12:28:32.614Z,17.30
2018-03-03T12:31:00.769Z,18.00
2018-03-03T12:33:29.669Z,18.50
2018-03-03T12:35:57.910Z,18.50
2018-03-03T12:38:26.090Z,18.80
2018-03-03T12:40:54.256Z,18.20
2018-03-03T12:43:22.389Z,18.20
2018-03-03T12:45:50.522Z,18.90
2018-03-03T12:48:19.960Z,20.50
2018-03-03T12:50:48.262Z,20.50
2018-03-03T12:53:16.407Z,21.00
2018-03-03T12:55:44.557Z,21.40
2018-03-03T12:58:12.754Z,21.70
2018-03-03T13:00:40.910Z,22.10
2018-03-03T13:03:09.050Z,22.70
2018-03-03T13:05:37.970Z,22.90
2018-03-03T13:08:06.164Z,22.90
2018-03-03T13:10:34.298Z,22.90
2018-03-03T13:13:03.223Z,23.30
2018-03-03T13:15:31.355Z,23.30
2018-03-03T13:18:00.274Z,24.00
2018-03-03T13:20:28.410Z,24.00
2018-03-03T13:22:56.545Z,24.70
2018-03-03T13:25:24.706Z,25.20
2018-03-03T13:27:52.851Z,25.50
2018-03-03T13:30:20.991Z,25.30
2018-03-03T13:32:49.166Z,24.70
2018-03-03T13:35:17.298Z,24.90
2018-03-03T13:37:45.445Z,24.90
2018-03-03T13:40:13.608Z,24.80
2018-03-03T13:42:42.510Z,25.50
2018-03-03T13:45:11.162Z,25.40
2018-03-03T13:47:39.338Z,25.80
2018-03-03T13:50:07.475Z,25.30
2018-03-03T13:52:35.634Z,25.00
2018-03-03T13:55:03.798Z,24.90
2018-03-03T13:57:31.930Z,24.30
2018-03-03T14:00:00.844Z,23.60
2018-03-03T14:02:29.627Z,23.50
2018-03-03T14:04:57.773Z,23.70
2018-03-03T14:07:25.909Z,24.00
2018-03-03T14:09:54.059Z,24.00
2018-03-03T14:12:22.230Z,23.60
2018-03-03T14:14:50.362Z,23.60
2018-03-03T14:17:18.502Z,23.60
2018-03-03T14:19:46.657Z,24.00
2018-03-03T14:22:14.802Z,23.50
2018-03-03T14:24:43.738Z,24.00
2018-03-03T14:27:11.881Z,24.00
2018-03-03T14:29:40.039Z,24.20
2018-03-03T14:32:08.205Z,24.30
2018-03-03T14:34:37.138Z,23.70
2018-03-03T14:37:05.302Z,23.70
2018-03-03T14:39:33.561Z,23.70
2018-03-03T14:42:01.730Z,23.60
2018-03-03T14:44:29.865Z,23.60
2018-03-03T14:46:58.000Z,23.60
2018-03-03T14:49:26.263Z,23.70
2018-03-03T14:51:54.403Z,23.60
2018-03-03T14:54:23.313Z,23.60
2018-03-03T14:56:51.482Z,23.60
2018-03-03T14:59:19.682Z,23.30
2018-03-03T15:01:47.818Z,23.20
2018-03-03T15:04:16.742Z,22.60
2018-03-03T15:06:44.906Z,22.60
2018-03-03T15:09:13.038Z,22.00
2018-03-03T15:11:41.977Z,22.20
2018-03-03T15:14:10.139Z,22.10
2018-03-03T15:16:38.289Z,21.90
2018-03-03T15:19:07.186Z,21.60
2018-03-03T15:21:35.422Z,21.50
2018-03-03T15:24:03.668Z,21.40
2018-03-03T15:26:31.814Z,21.20
2018-03-03T15:29:00.011Z,21.10
2018-03-03T15:31:28.185Z,20.30
2018-03-03T15:33:56.323Z,20.20
2018-03-03T15:36:24.781Z,19.90
2018-03-03T15:38:53.001Z,19.50
2018-03-03T15:41:21.138Z,19.30
2018-03-03T15:43:50.059Z,18.00
2018-03-03T15:46:18.200Z,17.90
2018-03-03T15:48:47.133Z,17.00
2018-03-03T15:51:15.279Z,17.00
2018-03-03T15:53:43.415Z,16.50
2018-03-03T15:56:11.562Z,16.00
2018-03-03T15:58:39.719Z,15.90
2018-03-03T16:01:07.858Z,15.90
2018-03-03T16:03:36.784Z,14.60
2018-03-03T16:06:04.930Z,14.50
2018-03-03T16:08:33.089Z,13.70
2018-03-03T16:11:02.016Z,11.40
2018-03-03T16:13:30.150Z,11.40
2018-03-03T16:15:58.298Z,10.20
2018-03-03T16:18:26.453Z,9.00
2018-03-03T16:20:54.586Z,8.40
2018-03-03T16:23:22.758Z,7.90
2018-03-03T16:25:50.950Z,7.20
2018-03-03T16:28:19.087Z,6.50
2018-03-03T16:30:47.241Z,5.90
2018-03-03T16:33:15.375Z,5.20
2018-03-03T16:35:43.537Z,4.60
2018-03-03T16:38:11.671Z,4.20
2018-03-03T16:40:40.589Z,3.30
2018-03-03T16:43:08.754Z,3.20
2018-03-03T16:45:36.890Z,2.80
2018-03-03T16:48:05.117Z,2.40
2018-03-03T16:50:33.298Z,2.20
2018-03-03T16:53:01.437Z,1.80
2018-03-03T16:55:29.638Z,1.60
2018-03-03T16:57:57.794Z,1.20
2018-03-03T17:00:25.982Z,1.00
2018-03-03T17:02:54.173Z,0.80
2018-03-03T17:05:22.319Z,0.50
2018-03-03T17:07:50.459Z,0.30
2018-03-03T17:10:19.366Z,0.10
2018-03-03T17:12:47.680Z,0.30
2018-03-03T17:15:15.837Z,-0.20
2018-03-03T17:17:43.982Z,-0.30
2018-03-03T17:20:13.189Z,-0.50
2018-03-03T17:22:41.334Z,-0.50
2018-03-03T17:25:09.474Z,-0.60
2018-03-03T17:27:37.642Z,-0.70
2018-03-03T17:30:05.795Z,-0.80
2018-03-03T17:32:34.034Z,-0.90
2018-03-03T17:35:02.972Z,-1.00
2018-03-03T17:37:31.114Z,-0.90
2018-03-03T17:39:59.982Z,-1.10
2018-03-03T17:42:28.927Z,-1.20
2018-03-03T17:44:57.100Z,-1.20
2018-03-03T17:47:25.249Z,-1.30
2018-03-03T17:49:54.117Z,-1.40
2018-03-03T17:52:23.037Z,-1.50
2018-03-03T17:54:51.182Z,-1.60
2018-03-03T17:57:20.118Z,-1.70
2018-03-03T17:59:48.276Z,-1.80
2018-03-03T18:02:16.450Z,-1.70
2018-03-03T18:04:44.626Z,-1.80
2018-03-03T18:07:12.808Z,-1.80
2018-03-03T18:09:40.977Z,-1.90
2018-03-03T18:12:09.115Z,-1.90
2018-03-03T18:14:37.294Z,-2.00
2018-03-03T18:17:05.442Z,-2.00
2018-03-03T18:19:35.990Z,-2.10
2018-03-03T18:22:04.159Z,-2.00
2018-03-03T18:24:37.161Z,-2.20
2018-03-03T18:27:05.338Z,-2.20
2018-03-03T18:29:33.481Z,-2.20
2018-03-03T18:32:02.554Z,-2.30
2018-03-03T18:34:30.738Z,-2.30
2018-03-03T18:36:58.905Z,-2.30
2018-03-03T18:39:27.052Z,-2.40
2018-03-03T18:41:55.220Z,-2.40
2018-03-03T18:44:23.387Z,-2.40
2018-03-03T18:46:51.581Z,-2.40
2018-03-03T18:49:19.722Z,-2.40
2018-03-03T18:51:47.865Z,-2.50
2018-03-03T18:54:16.809Z,-2.50
2018-03-03T18:56:44.965Z,-2.60
2018-03-03T18:59:13.122Z,-2.50
2018-03-03T19:01:41.284Z,-2.50
2018-03-03T19:04:09.449Z,-2.50
2018-03-03T19:06:37.597Z,-2.60
2018-03-03T19:09:05.776Z,-2.60
2018-03-03T19:11:34.813Z,-2.70
2018-03-03T19:14:03.087Z,-2.80
2018-03-03T19:16:31.282Z,-2.70
2018-03-03T19:18:59.498Z,-2.70
2018-03-03T19:21:28.440Z,-2.80
2018-03-03T19:23:57.508Z,-2.80
2018-03-03T19:26:25.692Z,-2.50
2018-03-03T19:28:53.874Z,-2.80
2018-03-03T19:31:22.035Z,-2.80
2018-03-03T19:33:50.203Z,-2.80
2018-03-03T19:36:18.402Z,-2.80
2018-03-03T19:38:46.574Z,-2.90
2018-03-03T19:41:14.841Z,-2.90
2018-03-03T19:43:43.010Z,-2.90
2018-03-03T19:46:11.155Z,-2.90
2018-03-03T19:48:39.302Z,-2.90
2018-03-03T19:51:07.483Z,-2.90
2018-03-03T19:53:36.421Z,-3.00
2018-03-03T19:56:04.606Z,-2.80
2018-03-03T19:58:32.784Z,-3.00
2018-03-03T20:01:00.943Z,-3.00
2018-03-03T20:03:29.090Z,-3.00
2018-03-03T20:05:57.270Z,-3.10
2018-03-03T20:08:25.414Z,-3.10
2018-03-03T20:10:54.327Z,-3.10
2018-03-03T20:13:22.708Z,-3.10
2018-03-03T20:15:50.853Z,-3.20
2018-03-03T20:18:19.767Z,-3.20
2018-03-03T20:20:47.938Z,-3.10
2018-03-03T20:23:16.087Z,-3.30
2018-03-03T20:25:44.993Z,-3.30
2018-03-03T20:28:13.158Z,-3.30
2018-03-03T20:30:42.121Z,-3.30
2018-03-03T20:33:10.347Z,-3.10
2018-03-03T20:35:38.611Z,-3.30
2018-03-03T20:38:06.817Z,-3.30
2018-03-03T20:40:34.966Z,-3.30
2018-03-03T20:43:03.120Z,-3.30
2018-03-03T20:45:32.066Z,-3.40
2018-03-03T20:48:00.233Z,-3.40
2018-03-03T20:50:28.373Z,-3.50
2018-03-03T20:52:56.550Z,-3.50
2018-03-03T20:55:24.694Z,-3.50
2018-03-03T20:57:53.601Z,-3.60
2018-03-03T21:00:21.772Z,-3.60
2018-03-03T21:02:49.968Z,-3.60
2018-03-03T21:05:18.856Z,-3.70
2018-03-03T21:07:47.044Z,-3.50
2018-03-03T21:10:15.195Z,-3.70
2018-03-03T21:12:43.368Z,-3.70
2018-03-03T21:15:11.531Z,-3.70
2018-03-03T21:17:39.678Z,-3.70
2018-03-03T21:20:08.596Z,-3.70
2018-03-03T21:22:36.757Z,-3.60
2018-03-03T21:25:04.936Z,-3.70
2018-03-03T21:27:33.079Z,-3.70
2018-03-03T21:30:01.225Z,-3.70
2018-03-03T21:32:29.381Z,-3.70
2018-03-03T21:34:57.552Z,-3.80
2018-03-03T21:37:25.820Z,-3.80
2018-03-03T21:39:53.966Z,-3.80
2018-03-03T21:42:22.120Z,-3.80
2018-03-03T21:44:51.075Z,-3.80
2018-03-03T21:47:19.218Z,-3.70
2018-03-03T21:49:47.362Z,-3.80
2018-03-03T21:52:16.302Z,-3.90
2018-03-03T21:54:44.446Z,-4.00
2018-03-03T21:57:12.590Z,-3.90
2018-03-03T21:59:41.531Z,-3.90
2018-03-03T22:02:09.678Z,-3.90
2018-03-03T22:04:37.823Z,-4.00
2018-03-03T22:07:05.998Z,-4.00
2018-03-03T22:09:34.947Z,-4.00
2018-03-03T22:12:03.114Z,-4.00
2018-03-03T22:14:31.287Z,-4.00
2018-03-03T22:16:59.435Z,-4.10
2018-03-03T22:19:27.593Z,-4.10
2018-03-03T22:21:56.511Z,-4.10
2018-03-03T22:24:24.683Z,-4.00
2018-03-03T22:26:52.859Z,-4.10
2018-03-03T22:29:21.002Z,-4.20
2018-03-03T22:31:49.954Z,-4.20
2018-03-03T22:34:18.098Z,-4.20
2018-03-03T22:36:46.258Z,-4.20
2018-03-03T22:39:14.431Z,-4.20
2018-03-03T22:41:42.582Z,-4.30
2018-03-03T22:44:11.496Z,-4.30
2018-03-03T22:46:39.675Z,-4.30
2018-03-03T22:49:07.821Z,-4.30
2018-03-03T22:51:36.740Z,-4.30
2018-03-03T22:54:04.915Z,-4.30
2018-03-03T22:56:33.063Z,-4.40
2018-03-03T22:59:01.266Z,-4.40
2018-03-03T23:01:29.437Z,-4.30
2018-03-03T23:03:57.578Z,-4.50
2018-03-03T23:06:25.722Z,-4.50
2018-03-03T23:08:53.889Z,-4.50
2018-03-03T23:11:22.034Z,-4.60
2018-03-03T23:13:50.189Z,-4.60
2018-03-03T23:16:18.352Z,-4.60
2018-03-03T23:18:46.493Z,-4.60
2018-03-03T23:21:15.441Z,-4.60
2018-03-03T23:23:43.591Z,-4.60
2018-03-03T23:26:11.734Z,-4.60
2018-03-03T23:28:40.682Z,-4.60
2018-03-03T23:31:08.840Z,-4.70
2018-03-03T23:33:36.987Z,-4.70
2018-03-03T23:36:05.162Z,-4.70
2018-03-03T23:38:33.310Z,-4.70
2018-03-03T23:41:02.222Z,-4.50
2018-03-03T23:43:30.391Z,-4.70
2018-03-03T23:45:58.543Z,-4.70
2018-03-03T23:48:26.687Z,-4.60
2018-03-03T23:50:54.841Z,-4.70
2018-03-03T23:53:22.982Z,-4.60
2018-03-03T23:55:51.181Z,-4.70
2018-03-03T23:58:19.334Z,-4.70
